Atmospheric History
12/06/2017 18:44  to  12/7/2017 18:44
Change End Date:
To complete the export process:
1) Select all of the data below
2) Copy the data to the clipboard
3) Open a word processor such as Notepad
4) Paste the data into the word processor
5) Save the file

Date/Time (MDT), AirTemp, RH, Dewpoint ,AvgWindSpeed, GustWindSpeed, WindDirection, PrecipType, PrecipIntensity, PrecipAccumulation, PrecipRate
12/07/2017 18:40, 39, 24, 6 ,21, 24, NW, None, None, ,  
12/07/2017 18:34, 39, 24, 6 ,19, 25, NW, None, None, ,  
12/07/2017 18:30, 39, 24, 6 ,21, 25, NW, None, None, ,  
12/07/2017 18:20, 38, 25, 6 ,21, 25, NW, None, None, ,  
12/07/2017 18:19, 38, 25, 6 ,20, 25, NW, None, None, ,  
12/07/2017 18:10, 38, 25, 6 ,21, 26, NW, None, None, ,  
12/07/2017 18:04, 38, 25, 6 ,19, 25, NW, None, None, ,  
12/07/2017 18:00, 38, 24, 6 ,20, 25, NW, None, None, ,  
12/07/2017 17:50, 39, 24, 6 ,20, 26, NW, None, None, ,  
12/07/2017 17:49, 39, 24, 6 ,21, 28, NW, None, None, ,  
12/07/2017 17:40, 39, 25, 7 ,19, 22, NW, None, None, ,  
12/07/2017 17:34, 38, 25, 6 ,16, 19, NW, None, None, ,  
12/07/2017 17:30, 38, 25, 6 ,15, 16, NW, None, None, ,  
12/07/2017 17:20, 38, 25, 6 ,14, 16, NW, None, None, ,  
12/07/2017 17:19, 38, 25, 6 ,14, 16, NW, None, None, ,  
12/07/2017 17:10, 38, 25, 6 ,12, 16, NW, None, None, ,  
12/07/2017 17:04, 39, 24, 6 ,14, 18, NW, None, None, ,  
12/07/2017 17:00, 39, 24, 6 ,12, 18, NW, None, None, ,  
12/07/2017 16:50, 40, 24, 6 ,15, 19, NW, None, None, ,  
12/07/2017 16:49, 40, 24, 6 ,15, 19, NW, None, None, ,  
12/07/2017 16:40, 40, 23, 6 ,16, 19, NW, None, None, ,  
12/07/2017 16:34, 41, 23, 7 ,16, 19, NW, None, None, ,  
12/07/2017 16:30, 41, 23, 7 ,16, 20, W, None, None, ,  
12/07/2017 16:20, 42, 23, 8 ,17, 22, W, None, None, ,  
12/07/2017 16:19, 42, 23, 8 ,17, 22, W, None, None, ,  
12/07/2017 16:10, 42, 23, 8 ,17, 22, NW, None, None, ,  
12/07/2017 16:04, 43, 23, 8 ,19, 26, NW, None, None, ,  
12/07/2017 16:00, 43, 23, 8 ,20, 27, W, None, None, ,  
12/07/2017 15:50, 43, 23, 8 ,19, 25, W, None, None, ,  
12/07/2017 15:49, 43, 23, 8 ,19, 24, W, None, None, ,  
12/07/2017 15:39, 44, 22, 8 ,19, 27, W, None, None, ,  
12/07/2017 15:34, 44, 22, 8 ,23, 28, W, None, None, ,  
12/07/2017 15:29, 44, 22, 8 ,23, 31, NW, None, None, ,  
12/07/2017 15:19, 44, 22, 8 ,24, 32, W, None, None, ,  
12/07/2017 15:19, 44, 22, 8 ,24, 32, W, None, None, ,  
12/07/2017 15:09, 45, 22, 8 ,22, 31, W, None, None, ,  
12/07/2017 15:04, 45, 21, 8 ,24, 31, W, None, None, ,  
12/07/2017 14:59, 45, 21, 8 ,24, 32, W, None, None, ,  
12/07/2017 14:49, 45, 21, 8 ,23, 32, W, None, None, ,  
12/07/2017 14:49, 45, 21, 8 ,23, 32, W, None, None, ,  
12/07/2017 14:39, 46, 21, 9 ,27, 32, NW, None, None, ,  
12/07/2017 14:34, 46, 21, 9 ,25, 34, NW, None, None, ,  
12/07/2017 14:29, 46, 21, 9 ,29, 34, NW, None, None, ,  
12/07/2017 14:19, 46, 22, 9 ,27, 33, NW, None, None, ,  
12/07/2017 14:19, 46, 22, 9 ,27, 33, NW, None, None, ,  
12/07/2017 14:09, 45, 22, 9 ,27, 34, NW, None, None, ,  
12/07/2017 14:04, 45, 22, 9 ,26, 36, NW, None, None, ,  
12/07/2017 13:59, 45, 22, 9 ,27, 36, NW, None, None, ,  
12/07/2017 13:49, 45, 22, 9 ,26, 34, NW, None, None, ,  
12/07/2017 13:49, 45, 22, 9 ,26, 34, NW, None, None, ,  
12/07/2017 13:39, 45, 23, 10 ,24, 30, NW, None, None, ,  
12/07/2017 13:34, 45, 23, 10 ,23, 30, NW, None, None, ,  
12/07/2017 13:29, 45, 23, 10 ,21, 25, NW, None, None, ,  
12/07/2017 13:19, 45, 23, 10 ,21, 32, NW, None, None, ,  
12/07/2017 13:19, 45, 23, 10 ,22, 32, NW, None, None, ,  
12/07/2017 13:09, 46, 23, 10 ,24, 31, NW, None, None, ,  
12/07/2017 13:04, 45, 23, 10 ,27, 31, NW, None, None, ,  
12/07/2017 12:59, 45, 23, 10 ,23, 32, NW, None, None, ,  
12/07/2017 12:49, 44, 23, 10 ,26, 35, NW, None, None, ,  
12/07/2017 12:49, 44, 23, 10 ,26, 35, NW, None, None, ,  
12/07/2017 12:38, 44, 24, 10 ,25, 30, NW, None, None, ,  
12/07/2017 12:34, 44, 24, 10 ,25, 32, W, None, None, ,  
12/07/2017 12:28, 44, 24, 10 ,23, 32, NW, None, None, ,  
12/07/2017 12:19, 44, 24, 11 ,24, 29, NW, None, None, ,  
12/07/2017 12:18, 44, 24, 11 ,23, 29, NW, None, None, ,  
12/07/2017 12:08, 44, 25, 11 ,24, 28, NW, None, None, ,  
12/07/2017 12:04, 44, 25, 11 ,23, 27, NW, None, None, ,  
12/07/2017 11:58, 44, 27, 12 ,21, 26, W, None, None, ,  
12/07/2017 11:49, 42, 29, 13 ,12, 20, W, None, None, ,  
12/07/2017 11:48, 42, 29, 13 ,12, 20, W, None, None, ,  
12/07/2017 11:38, 42, 30, 13 ,15, 21, W, None, None, ,  
12/07/2017 11:34, 41, 31, 13 ,13, 19, W, None, None, ,  
12/07/2017 11:28, 41, 32, 13 ,14, 17, W, None, None, ,  
12/07/2017 11:19, 38, 35, 14 ,7, 9, W, None, None, ,  
12/07/2017 11:18, 38, 35, 14 ,6, 9, W, None, None, ,  
12/07/2017 11:08, 37, 35, 13 ,7, 10, NW, None, None, ,  
12/07/2017 11:04, 37, 35, 13 ,8, 10, NW, None, None, ,  
12/07/2017 10:58, 37, 36, 12 ,7, 9, NW, None, None, ,  
12/07/2017 10:49, 36, 37, 12 ,5, 8, W, None, None, ,  
12/07/2017 10:48, 36, 37, 12 ,6, 8, NW, None, None, ,  
12/07/2017 10:38, 34, 39, 12 ,6, 7, NW, None, None, ,  
12/07/2017 10:34, 34, 39, 12 ,6, 7, NW, None, None, ,  
12/07/2017 10:28, 33, 40, 11 ,6, 7, NW, None, None, ,  
12/07/2017 10:19, 33, 40, 11 ,6, 7, NW, None, None, ,  
12/07/2017 10:18, 33, 40, 12 ,6, 7, NW, None, None, ,  
12/07/2017 10:08, 32, 41, 11 ,4, 6, NW, None, None, ,  
12/07/2017 10:04, 32, 41, 11 ,5, 7, NW, None, None, ,  
12/07/2017 09:58, 32, 41, 11 ,5, 8, W, None, None, ,  
12/07/2017 09:49, 31, 42, 11 ,5, 8, W, None, None, ,  
12/07/2017 09:47, 31, 42, 11 ,5, 7, W, None, None, ,  
12/07/2017 09:37, 30, 42, 10 ,6, 9, W, None, None, ,  
12/07/2017 09:34, 30, 42, 10 ,8, 11, W, None, None, ,  
12/07/2017 09:27, 30, 43, 10 ,10, 12, W, None, None, ,  
12/07/2017 09:19, 31, 41, 10 ,10, 21, W, None, None, ,  
12/07/2017 09:17, 32, 39, 11 ,10, 21, W, None, None, ,  
12/07/2017 09:07, 35, 38, 12 ,17, 22, NW, None, None, ,  
12/07/2017 09:04, 35, 38, 12 ,17, 22, NW, None, None, ,  
12/07/2017 08:57, 35, 38, 12 ,17, 22, NW, None, None, ,  
12/07/2017 08:49, 35, 38, 12 ,17, 21, NW, None, None, ,  
12/07/2017 08:47, 35, 39, 12 ,17, 21, NW, None, None, ,  
12/07/2017 08:37, 33, 40, 12 ,17, 20, NW, None, None, ,  
12/07/2017 08:34, 33, 40, 12 ,15, 20, NW, None, None, ,  
12/07/2017 08:27, 32, 41, 12 ,16, 17, NW, None, None, ,  
12/07/2017 08:19, 32, 41, 11 ,16, 18, NW, None, None, ,  
12/07/2017 08:17, 31, 42, 11 ,14, 17, NW, None, None, ,  
12/07/2017 08:07, 31, 42, 11 ,15, 17, NW, None, None, ,  
12/07/2017 08:04, 31, 42, 11 ,14, 18, NW, None, None, ,  
12/07/2017 07:57, 31, 43, 11 ,15, 18, NW, None, None, ,  
12/07/2017 07:49, 30, 43, 11 ,14, 16, NW, None, None, ,  
12/07/2017 07:47, 30, 43, 11 ,13, 16, NW, None, None, ,  
12/07/2017 07:37, 29, 44, 10 ,12, 14, NW, None, None, ,  
12/07/2017 07:34, 29, 44, 10 ,11, 12, NW, None, None, ,  
12/07/2017 07:27, 29, 44, 10 ,11, 13, NW, None, None, ,  
12/07/2017 07:19, 29, 44, 10 ,10, 12, NW, None, None, ,  
12/07/2017 07:17, 28, 45, 10 ,10, 12, NW, None, None, ,  
12/07/2017 07:07, 29, 44, 10 ,10, 12, NW, None, None, ,  
12/07/2017 07:04, 29, 44, 10 ,10, 12, NW, None, None, ,  
12/07/2017 06:57, 29, 43, 10 ,11, 14, NW, None, None, ,  
12/07/2017 06:49, 29, 43, 10 ,12, 14, NW, None, None, ,  
12/07/2017 06:46, 29, 43, 10 ,11, 14, NW, None, None, ,  
12/07/2017 06:36, 30, 42, 10 ,13, 17, NW, None, None, ,  
12/07/2017 06:34, 30, 42, 10 ,12, 17, NW, None, None, ,  
12/07/2017 06:26, 30, 43, 10 ,12, 15, NW, None, None, ,  
12/07/2017 06:19, 29, 45, 10 ,12, 14, NW, None, None, ,  
12/07/2017 06:16, 28, 46, 10 ,11, 13, NW, None, None, ,  
12/07/2017 06:06, 26, 47, 9 ,11, 12, NW, None, None, ,  
12/07/2017 06:04, 26, 47, 9 ,11, 12, NW, None, None, ,  
12/07/2017 05:56, 25, 48, 8 ,10, 12, NW, None, None, ,  
12/07/2017 05:49, 24, 48, 8 ,9, 10, NW, None, None, ,  
12/07/2017 05:46, 24, 48, 8 ,8, 9, NW, None, None, ,  
12/07/2017 05:36, 25, 47, 8 ,7, 9, NW, None, None, ,  
12/07/2017 05:34, 25, 47, 8 ,7, 9, NW, None, None, ,  
12/07/2017 05:26, 26, 46, 8 ,6, 9, NW, None, None, ,  
12/07/2017 05:19, 27, 45, 9 ,6, 7, NW, None, None, ,  
12/07/2017 05:16, 27, 45, 9 ,6, 7, NW, None, None, ,  
12/07/2017 05:06, 28, 44, 9 ,6, 9, W, None, None, ,  
12/07/2017 05:04, 28, 44, 9 ,5, 9, W, None, None, ,  
12/07/2017 04:56, 28, 44, 9 ,7, 10, NW, None, None, ,  
12/07/2017 04:49, 28, 44, 9 ,7, 11, NW, None, None, ,  
12/07/2017 04:46, 28, 44, 9 ,9, 11, NW, None, None, ,  
12/07/2017 04:36, 27, 44, 9 ,7, 11, NW, None, None, ,  
12/07/2017 04:34, 28, 44, 9 ,6, 11, NW, None, None, ,  
12/07/2017 04:26, 28, 43, 9 ,7, 11, NW, None, None, ,  
12/07/2017 04:19, 28, 43, 9 ,6, 9, NW, None, None, ,  
12/07/2017 04:16, 28, 43, 9 ,7, 9, NW, None, None, ,  
12/07/2017 04:06, 28, 43, 8 ,7, 9, NW, None, None, ,  
12/07/2017 04:04, 28, 43, 8 ,7, 9, NW, None, None, ,  
12/07/2017 03:55, 27, 44, 8 ,7, 9, NW, None, None, ,  
12/07/2017 03:49, 27, 44, 8 ,7, 8, NW, None, None, ,  
12/07/2017 03:45, 27, 44, 8 ,7, 9, NW, None, None, ,  
12/07/2017 03:35, 27, 44, 8 ,7, 9, NW, None, None, ,  
12/07/2017 03:34, 27, 44, 8 ,7, 9, NW, None, None, ,  
12/07/2017 03:25, 28, 43, 8 ,7, 9, NW, None, None, ,  
12/07/2017 03:19, 27, 44, 8 ,7, 9, NW, None, None, ,  
12/07/2017 03:15, 27, 44, 8 ,7, 9, NW, None, None, ,  
12/07/2017 03:05, 27, 43, 8 ,6, 9, NW, None, None, ,  
12/07/2017 03:04, 27, 43, 8 ,6, 9, NW, None, None, ,  
12/07/2017 02:55, 27, 43, 8 ,7, 8, NW, None, None, ,  
12/07/2017 02:49, 27, 43, 8 ,7, 9, NW, None, None, ,  
12/07/2017 02:45, 27, 44, 8 ,6, 9, NW, None, None, ,  
12/07/2017 02:35, 27, 44, 8 ,7, 9, NW, None, None, ,  
12/07/2017 02:34, 27, 44, 8 ,7, 9, NW, None, None, ,  
12/07/2017 02:25, 27, 44, 8 ,7, 9, NW, None, None, ,  
12/07/2017 02:19, 27, 44, 8 ,8, 9, NW, None, None, ,  
12/07/2017 02:15, 27, 44, 8 ,8, 9, NW, None, None, ,  
12/07/2017 02:05, 27, 44, 8 ,8, 10, NW, None, None, ,  
12/07/2017 02:04, 27, 44, 8 ,8, 10, NW, None, None, ,  
12/07/2017 01:55, 28, 43, 8 ,8, 11, NW, None, None, ,  
12/07/2017 01:49, 28, 44, 8 ,7, 9, NW, None, None, ,  
12/07/2017 01:45, 27, 44, 8 ,7, 9, NW, None, None, ,  
12/07/2017 01:35, 27, 43, 8 ,7, 9, NW, None, None, ,  
12/07/2017 01:34, 27, 43, 8 ,7, 9, NW, None, None, ,  
12/07/2017 01:25, 27, 43, 8 ,6, 8, NW, None, None, ,  
12/07/2017 01:19, 28, 43, 8 ,6, 8, W, None, None, ,  
12/07/2017 01:15, 27, 43, 8 ,6, 9, NW, None, None, ,  
12/07/2017 01:05, 28, 42, 8 ,6, 7, W, None, None, ,  
12/07/2017 01:04, 28, 41, 7 ,6, 7, NW, None, None, ,  
12/07/2017 00:54, 28, 40, 7 ,4, 4, NW, None, None, ,  
12/07/2017 00:49, 28, 40, 7 ,3, 4, NW, None, None, ,  
12/07/2017 00:44, 28, 40, 6 ,2, 4, NW, None, None, ,  
12/07/2017 00:34, 28, 39, 6 ,2, 4, W, None, None, ,  
12/07/2017 00:34, 28, 39, 6 ,2, 4, W, None, None, ,  
12/07/2017 00:24, 28, 39, 7 ,2, 6, NW, None, None, ,  
12/07/2017 00:19, 28, 39, 7 ,4, 6, NW, None, None, ,  
12/07/2017 00:14, 28, 39, 6 ,2, 4, NW, None, None, ,  
12/07/2017 00:04, 28, 38, 6 ,3, 6, NW, None, None, ,  
12/07/2017 00:04, 28, 38, 6 ,3, 6, NW, None, None, ,  
12/06/2017 23:54, 29, 38, 7 ,4, 7, NW, None, None, ,  
12/06/2017 23:49, 29, 38, 6 ,4, 6, NW, None, None, ,  
12/06/2017 23:44, 29, 38, 6 ,4, 6, NW, None, None, ,  
12/06/2017 23:34, 29, 37, 6 ,4, 6, NW, None, None, ,  
12/06/2017 23:34, 29, 37, 6 ,4, 6, NW, None, None, ,  
12/06/2017 23:24, 28, 37, 6 ,4, 7, W, None, None, ,  
12/06/2017 23:19, 28, 36, 5 ,3, 5, NW, None, None, ,  
12/06/2017 23:14, 28, 36, 5 ,4, 6, NW, None, None, ,  
12/06/2017 23:04, 28, 37, 5 ,4, 6, NW, None, None, ,  
12/06/2017 23:04, 28, 37, 5 ,4, 6, NW, None, None, ,  
12/06/2017 22:54, 27, 36, 4 ,4, 6, NW, None, None, ,  
12/06/2017 22:49, 27, 36, 4 ,4, 6, NW, None, None, ,  
12/06/2017 22:44, 28, 36, 4 ,4, 6, NW, None, None, ,  
12/06/2017 22:34, 28, 35, 4 ,4, 6, NW, None, None, ,  
12/06/2017 22:34, 28, 35, 4 ,4, 6, NW, None, None, ,  
12/06/2017 22:24, 28, 34, 4 ,5, 6, NW, None, None, ,  
12/06/2017 22:19, 29, 34, 5 ,4, 6, NW, None, None, ,  
12/06/2017 22:14, 29, 34, 5 ,6, 6, NW, None, None, ,  
12/06/2017 22:04, 29, 36, 5 ,6, 7, NW, None, None, ,  
12/06/2017 22:03, 29, 36, 5 ,6, 7, NW, None, None, ,  
12/06/2017 21:53, 28, 37, 6 ,7, 7, NW, None, None, ,  
12/06/2017 21:49, 29, 37, 6 ,7, 9, NW, None, None, ,  
12/06/2017 21:43, 29, 37, 6 ,7, 9, NW, None, None, ,  
12/06/2017 21:34, 28, 39, 6 ,7, 8, N, None, None, ,  
12/06/2017 21:33, 28, 39, 6 ,7, 8, NW, None, None, ,  
12/06/2017 21:23, 27, 40, 6 ,7, 8, N, None, None, ,  
12/06/2017 21:19, 27, 41, 7 ,7, 8, N, None, None, ,  
12/06/2017 21:13, 27, 41, 6 ,7, 8, N, None, None, ,  
12/06/2017 21:04, 27, 41, 7 ,6, 7, NW, None, None, ,  
12/06/2017 21:03, 27, 41, 7 ,6, 7, NW, None, None, ,  
12/06/2017 20:53, 27, 42, 7 ,6, 7, N, None, None, ,  
12/06/2017 20:49, 27, 42, 7 ,6, 7, N, None, None, ,  
12/06/2017 20:43, 26, 43, 7 ,7, 8, N, None, None, ,  
12/06/2017 20:34, 26, 43, 7 ,7, 8, N, None, None, ,  
12/06/2017 20:33, 26, 43, 7 ,7, 8, NW, None, None, ,  
12/06/2017 20:23, 26, 44, 8 ,7, 9, NW, None, None, ,  
12/06/2017 20:19, 26, 44, 8 ,7, 9, NW, None, None, ,  
12/06/2017 20:13, 26, 44, 8 ,7, 9, NW, None, None, ,  
12/06/2017 20:04, 26, 44, 8 ,8, 9, NW, None, None, ,  
12/06/2017 20:03, 26, 44, 8 ,8, 9, NW, None, None, ,  
12/06/2017 19:53, 27, 45, 8 ,9, 10, NW, None, None, ,  
12/06/2017 19:49, 27, 45, 8 ,9, 10, NW, None, None, ,  
12/06/2017 19:43, 27, 45, 9 ,8, 9, NW, None, None, ,  
12/06/2017 19:34, 26, 47, 9 ,7, 9, NW, None, None, ,  
12/06/2017 19:33, 26, 47, 9 ,7, 9, NW, None, None, ,  
12/06/2017 19:23, 25, 48, 8 ,7, 7, NW, None, None, ,  
12/06/2017 19:19, 25, 48, 9 ,7, 7, NW, None, None, ,  
12/06/2017 19:12, 25, 48, 9 ,7, 7, NW, None, None, ,  
12/06/2017 19:04, 25, 48, 9 ,7, 7, NW, None, None, ,  
12/06/2017 19:02, 25, 49, 9 ,7, 7, NW, None, None, ,  
12/06/2017 18:52, 25, 50, 9 ,7, 9, NW, None, None, ,  
12/06/2017 18:49, 25, 50, 9 ,7, 9, NW, None, None, ,  
Change End Date:

Copyright © 1998-2015 Vaisala, Inc.
All Rights Reserved
Send comments about the data to:
SCAN Web ® is a registered trademark of Vaisala, Inc.
SCAN Web Version 6.0